Storm Events Database

Event Details

Event Lightning
State MISSISSIPPI
County/Area RANKIN
WFO JAN
Report Source Broadcast Media
NCDC Data Source CSV
Begin Date 2010-08-05 12:40:00.0 CST-6
Begin Location 1ENE LAKELAND
Begin Lat/Lon 32.23/-90.15
End Date 2010-08-05 12:40:00.0 CST-6
Deaths Direct/Indirect 0/0 (fatality details below, when available...)
Injuries Direct/Indirect 0/0
Property Damage 15.00K
Crop Damage 0.00K
Episode Narrative Numerous showers and thunderstorms developed during the afternoon hours of August 5th. This round of storms essentially broke the heat wave which started the month. The atmosphere was primed for severe storms this day and several thunderstorms brought damaging winds, hail, and locally heavy rain.
Event Narrative Lightning struck an apartment in Richland, causing minor damage.


     ‚Äč



All events for this episode:

Location County/Zone St. Date Time T.Z. Type Mag Dth Inj PrD CrD
Totals: 0 0 218.00K 0.00K
MAGEE SIMPSON CO. MS 08/05/2010 12:00 CST-6 Thunderstorm Wind 55 kts. EG 0 0 15.00K 0.00K
MERIT SIMPSON CO. MS 08/05/2010 12:10 CST-6 Thunderstorm Wind 53 kts. EG 0 0 0.00K 0.00K
BRAXTON SIMPSON CO. MS 08/05/2010 12:16 CST-6 Thunderstorm Wind 50 kts. EG 0 0 0.00K 0.00K
GALLMAN COPIAH CO. MS 08/05/2010 12:22 CST-6 Thunderstorm Wind 50 kts. EG 0 0 0.00K 0.00K
CRYSTAL SPGS COPIAH CO. MS 08/05/2010 12:25 CST-6 Thunderstorm Wind 50 kts. EG 0 0 0.00K 0.00K
FLORENCE RANKIN CO. MS 08/05/2010 12:40 CST-6 Thunderstorm Wind 50 kts. EG 0 0 0.00K 0.00K
LAKELAND RANKIN CO. MS 08/05/2010 12:40 CST-6 Lightning 0 0 15.00K 0.00K
SPRING RIDGE HINDS CO. MS 08/05/2010 12:40 CST-6 Thunderstorm Wind 50 kts. EG 0 0 0.00K 0.00K
RICE HILL RANKIN CO. MS 08/05/2010 12:55 CST-6 Thunderstorm Wind 50 kts. EG 0 0 0.00K 0.00K
VALUE RANKIN CO. MS 08/05/2010 12:55 CST-6 Hail 0.75 in. 0 0 0.00K 0.00K
VALUE RANKIN CO. MS 08/05/2010 13:00 CST-6 Thunderstorm Wind 50 kts. EG 0 0 0.00K 0.00K
DRY GROVE HINDS CO. MS 08/05/2010 13:05 CST-6 Thunderstorm Wind 50 kts. EG 0 0 10.00K 0.00K
LUCKNEY RANKIN CO. MS 08/05/2010 13:05 CST-6 Thunderstorm Wind 50 kts. EG 0 0 5.00K 0.00K
RICE HILL RANKIN CO. MS 08/05/2010 13:05 CST-6 Thunderstorm Wind 50 kts. EG 0 0 17.00K 0.00K
MADISON MADISON CO. MS 08/05/2010 13:10 CST-6 Lightning 0 0 75.00K 0.00K
JACKSON HINDS CO. MS 08/05/2010 13:15 CST-6 Thunderstorm Wind 52 kts. EG 0 0 10.00K 0.00K
FLOWOOD RANKIN CO. MS 08/05/2010 13:25 CST-6 Thunderstorm Wind 50 kts. EG 0 0 0.00K 0.00K
FARMHAVEN MADISON CO. MS 08/05/2010 13:38 CST-6 Thunderstorm Wind 50 kts. EG 0 0 0.00K 0.00K
FLORA MADISON CO. MS 08/05/2010 13:45 CST-6 Thunderstorm Wind 52 kts. EG 0 0 0.00K 0.00K
CAMDEN MADISON CO. MS 08/05/2010 13:50 CST-6 Thunderstorm Wind 52 kts. EG 0 0 0.00K 0.00K
SHERWOOD CHOCTAW CO. MS 08/05/2010 14:06 CST-6 Thunderstorm Wind 52 kts. EG 0 0 10.00K 0.00K
MANSDALE MADISON CO. MS 08/05/2010 14:10 CST-6 Flash Flood 0 0 3.00K 0.00K
GRANGE HALL WARREN CO. MS 08/05/2010 14:15 CST-6 Thunderstorm Wind 50 kts. EG 0 0 0.00K 0.00K
VICKSBURG WARREN CO. MS 08/05/2010 14:20 CST-6 Thunderstorm Wind 50 kts. EG 0 0 15.00K 0.00K
OSBORN OKTIBBEHA CO. MS 08/05/2010 14:30 CST-6 Thunderstorm Wind 50 kts. EG 0 0 3.00K 0.00K
KOSCIUSKO ATTALA CO. MS 08/05/2010 14:40 CST-6 Thunderstorm Wind 53 kts. EG 0 0 10.00K 0.00K
TIE PLANT GRENADA CO. MS 08/05/2010 14:40 CST-6 Thunderstorm Wind 50 kts. EG 0 0 0.00K 0.00K
TOLLISON CHOCTAW CO. MS 08/05/2010 14:52 CST-6 Thunderstorm Wind 55 kts. EG 0 0 5.00K 0.00K
TIBBEE CLAY CO. MS 08/05/2010 14:57 CST-6 Thunderstorm Wind 52 kts. EG 0 0 15.00K 0.00K
BILLUPS LOWNDES CO. MS 08/05/2010 15:25 CST-6 Thunderstorm Wind 50 kts. EG 0 0 5.00K 0.00K
COLUMBUS/LOWNDES CO LOWNDES CO. MS 08/05/2010 15:40 CST-6 Thunderstorm Wind 50 kts. EG 0 0 5.00K 0.00K
Totals: 0 0 218.00K 0.00K